Time;durP1;ratioP1;P1;durP2;ratioP2;P2;SDS_P1;SDS_P2;PMS_P1;PMS_P2;Temp;Humidity;BMP_temperature;BMP_pressure;BME280_temperature;BME280_humidity;BME280_pressure;Samples;Min_cycle;Max_cycle;Signal;HPM_P1;HPM_P2
2022/06/05 00:00:30;;;;;;;0.00;0.00;;;12.50;99.90;;;;;;5023716;28;20777;-75
2022/06/05 00:03:11;;;;;;;0.00;0.00;;;12.50;99.90;;;;;;5025860;28;20850;-75
2022/06/05 00:05:47;;;;;;;0.00;0.00;;;12.50;99.90;;;;;;5021233;28;20444;-75
2022/06/05 00:08:22;;;;;;;0.00;0.00;;;12.40;99.90;;;;;;5020715;28;20487;-73
2022/06/05 00:10:54;;;;;;;0.00;0.00;;;12.30;99.90;;;;;;5022178;28;20476;-73
2022/06/05 00:13:30;;;;;;;0.00;0.00;;;12.30;99.90;;;;;;5026824;28;20433;-73
2022/06/05 00:18:27;;;;;;;0.00;0.00;;;12.20;99.90;;;;;;5022143;28;20465;-74
2022/06/05 00:20:55;;;;;;;0.00;0.00;;;12.20;99.90;;;;;;5023985;28;20437;-75
2022/06/05 00:23:23;;;;;;;0.00;0.00;;;12.10;99.90;;;;;;5021526;28;20972;-75
2022/06/05 00:26:00;;;;;;;0.00;0.00;;;12.10;99.90;;;;;;5019555;28;20990;-75
2022/06/05 00:28:38;;;;;;;0.00;0.00;;;12.10;99.90;;;;;;5020953;28;20954;-75
2022/06/05 00:31:16;;;;;;;0.00;0.00;;;12.00;99.90;;;;;;5020677;28;20997;-75
2022/06/05 00:33:45;;;;;;;0.00;0.00;;;12.00;99.90;;;;;;5020860;28;21056;-76
2022/06/05 00:36:28;;;;;;;0.00;0.00;;;12.00;99.90;;;;;;5020051;28;20441;-74
2022/06/05 00:39:05;;;;;;;0.00;0.00;;;11.90;99.90;;;;;;5020874;28;20921;-75
2022/06/05 00:41:48;;;;;;;0.00;0.00;;;12.00;99.90;;;;;;5020350;28;20454;-75
2022/06/05 00:44:20;;;;;;;0.00;0.00;;;12.00;99.90;;;;;;5020237;28;20440;-75
2022/06/05 00:46:51;;;;;;;0.00;0.00;;;11.90;99.90;;;;;;5020362;28;20441;-75
2022/06/05 00:49:23;;;;;;;0.00;0.00;;;11.90;99.90;;;;;;5020311;28;20520;-75
2022/06/05 00:51:51;;;;;;;0.00;0.00;;;11.90;99.90;;;;;;5020227;28;20996;-75
2022/06/05 00:54:19;;;;;;;0.00;0.00;;;11.90;99.90;;;;;;5020334;28;20455;-75
2022/06/05 00:56:47;;;;;;;0.00;0.00;;;11.90;99.90;;;;;;5019835;28;20429;-75
2022/06/05 00:59:16;;;;;;;0.00;0.00;;;11.80;99.90;;;;;;5019426;28;20507;-75
2022/06/05 01:01:44;;;;;;;0.00;0.00;;;11.80;99.90;;;;;;5019965;28;20465;-75
2022/06/05 01:04:13;;;;;;;0.00;0.00;;;11.70;99.90;;;;;;5020187;28;20630;-74
2022/06/05 01:06:42;;;;;;;0.00;0.00;;;11.80;99.90;;;;;;5019989;28;20867;-75
2022/06/05 01:09:10;;;;;;;0.00;0.00;;;11.80;99.90;;;;;;5020005;28;20846;-74
2022/06/05 01:11:48;;;;;;;0.00;0.00;;;11.80;99.90;;;;;;5019470;28;20786;-74
2022/06/05 01:14:27;;;;;;;0.00;0.00;;;11.80;99.90;;;;;;5019632;28;20455;-74
2022/06/05 01:17:00;;;;;;;0.00;0.00;;;11.80;99.90;;;;;;5019393;28;20679;-75
2022/06/05 01:19:40;;;;;;;0.00;0.00;;;11.70;99.90;;;;;;5019654;28;20437;-74
2022/06/05 01:22:40;;;;;;;0.00;0.00;;;11.70;99.90;;;;;;5019409;28;20449;-74
2022/06/05 01:25:36;;;;;;;0.00;0.00;;;11.70;99.90;;;;;;5014106;28;20734;-74
2022/06/05 01:28:09;;;;;;;0.00;0.00;;;11.60;99.90;;;;;;5022330;28;20441;-75
2022/06/05 01:30:45;;;;;;;0.00;0.00;;;11.50;99.90;;;;;;5020598;28;20702;-74
2022/06/05 01:33:20;;;;;;;0.00;0.00;;;11.40;99.90;;;;;;5019466;28;20460;-74
2022/06/05 01:35:58;;;;;;;0.00;0.00;;;11.40;99.90;;;;;;5019137;28;20440;-74
2022/06/05 01:38:33;;;;;;;0.00;0.00;;;11.40;99.90;;;;;;5019277;28;20482;-74
2022/06/05 01:41:08;;;;;;;0.00;0.00;;;11.40;99.90;;;;;;5019050;28;20828;-75
2022/06/05 01:43:41;;;;;;;0.00;0.00;;;11.40;99.90;;;;;;5019396;28;20536;-75
2022/06/05 01:46:13;;;;;;;0.00;0.00;;;11.40;99.90;;;;;;5018744;28;20811;-75
2022/06/05 01:48:44;;;;;;;0.00;0.00;;;11.30;99.90;;;;;;5018971;28;20519;-74
2022/06/05 01:51:19;;;;;;;0.00;0.00;;;11.30;99.90;;;;;;5018804;28;20482;-76
2022/06/05 01:53:49;;;;;;;0.00;0.00;;;11.30;99.90;;;;;;5018561;28;20541;-75
2022/06/05 01:56:24;;;;;;;0.00;0.00;;;11.30;99.90;;;;;;5018829;28;20480;-75
2022/06/05 01:58:56;;;;;;;0.00;0.00;;;11.30;99.90;;;;;;5019438;28;20581;-75
2022/06/05 02:01:29;;;;;;;0.00;0.00;;;11.30;99.90;;;;;;5019143;28;20625;-74
2022/06/05 02:04:01;;;;;;;0.00;0.00;;;11.30;99.90;;;;;;5019193;28;20453;-75
2022/06/05 02:06:34;;;;;;;0.00;0.00;;;11.30;99.90;;;;;;5018820;28;20512;-75
2022/06/05 02:09:07;;;;;;;0.00;0.00;;;11.30;99.90;;;;;;5018950;28;20441;-74
2022/06/05 02:11:37;;;;;;;0.00;0.00;;;11.30;99.90;;;;;;5018428;28;20817;-73
2022/06/05 02:14:07;;;;;;;0.00;0.00;;;11.30;99.90;;;;;;5018453;28;20437;-75
2022/06/05 02:16:37;;;;;;;0.00;0.00;;;11.20;99.90;;;;;;5018508;28;20948;-75
2022/06/05 02:19:09;;;;;;;0.00;0.00;;;11.30;99.90;;;;;;5027929;28;20967;-75
2022/06/05 02:21:38;;;;;;;0.00;0.00;;;11.20;99.90;;;;;;5022261;28;20998;-75
2022/06/05 02:24:07;;;;;;;0.00;0.00;;;11.20;99.90;;;;;;5018190;28;20437;-74
2022/06/05 02:26:35;;;;;;;0.00;0.00;;;11.20;99.90;;;;;;5018024;28;20544;-74
2022/06/05 02:29:08;;;;;;;0.00;0.00;;;11.20;99.90;;;;;;5018080;28;20425;-76
2022/06/05 02:31:46;;;;;;;0.00;0.00;;;11.30;99.90;;;;;;5018191;28;20914;-76
2022/06/05 02:34:30;;;;;;;0.00;0.00;;;11.30;99.90;;;;;;5018038;28;20440;-74
2022/06/05 02:37:07;;;;;;;0.00;0.00;;;11.30;99.90;;;;;;5017918;28;21006;-75
2022/06/05 02:39:43;;;;;;;0.00;0.00;;;11.20;99.90;;;;;;5018030;28;20455;-75
2022/06/05 02:42:24;;;;;;;0.00;0.00;;;11.20;99.90;;;;;;5017970;28;20552;-75
2022/06/05 02:44:58;;;;;;;0.00;0.00;;;11.30;99.90;;;;;;5017885;28;20450;-74
2022/06/05 02:47:36;;;;;;;0.00;0.00;;;11.30;99.90;;;;;;5017063;28;20437;-75
2022/06/05 02:50:11;;;;;;;0.00;0.00;;;11.30;99.90;;;;;;5017739;28;20539;-74
2022/06/05 02:52:39;;;;;;;0.00;0.00;;;11.30;99.90;;;;;;5017331;28;20484;-75
2022/06/05 02:55:11;;;;;;;0.00;0.00;;;11.30;99.90;;;;;;5017791;28;20794;-74
2022/06/05 02:57:39;;;;;;;0.00;0.00;;;11.30;99.90;;;;;;5018220;28;20785;-75
2022/06/05 03:00:12;;;;;;;0.00;0.00;;;11.40;99.90;;;;;;5017540;28;20457;-75
2022/06/05 03:05:26;;;;;;;0.00;0.00;;;11.30;99.90;;;;;;5017934;28;20829;-74
2022/06/05 03:07:53;;;;;;;0.00;0.00;;;11.20;99.90;;;;;;5018315;28;20449;-74
2022/06/05 03:10:21;;;;;;;0.00;0.00;;;11.30;99.90;;;;;;5017818;28;20544;-74
2022/06/05 03:12:49;;;;;;;0.00;0.00;;;11.30;99.90;;;;;;5017523;28;20779;-74
2022/06/05 03:15:19;;;;;;;0.00;0.00;;;11.30;99.90;;;;;;5017676;28;20513;-74
2022/06/05 03:17:47;;;;;;;0.00;0.00;;;11.30;99.90;;;;;;5017864;28;20449;-74
2022/06/05 03:20:16;;;;;;;0.00;0.00;;;11.30;99.90;;;;;;5017641;28;20475;-74
2022/06/05 03:22:45;;;;;;;0.00;0.00;;;11.30;99.90;;;;;;5017463;28;21037;-74
2022/06/05 03:25:17;;;;;;;0.00;0.00;;;11.30;99.90;;;;;;5017240;28;20444;-73
2022/06/05 03:27:45;;;;;;;0.00;0.00;;;11.30;99.90;;;;;;5018003;28;20441;-75
2022/06/05 03:30:15;;;;;;;0.00;0.00;;;11.40;99.90;;;;;;5017784;28;20569;-75
2022/06/05 03:32:46;;;;;;;0.00;0.00;;;11.30;99.90;;;;;;5017439;28;20880;-75
2022/06/05 03:35:15;;;;;;;0.00;0.00;;;11.30;99.90;;;;;;5017082;28;20429;-75
2022/06/05 03:37:42;;;;;;;0.00;0.00;;;11.30;99.90;;;;;;5016987;28;20548;-75
2022/06/05 03:40:13;;;;;;;0.00;0.00;;;11.40;99.90;;;;;;5017457;28;20437;-75
2022/06/05 03:42:40;;;;;;;0.00;0.00;;;11.30;99.90;;;;;;5017323;28;20449;-74
2022/06/05 03:45:12;;;;;;;0.00;0.00;;;11.40;99.90;;;;;;5017600;28;20382;-74
2022/06/05 03:47:40;;;;;;;0.00;0.00;;;11.40;99.90;;;;;;5017573;28;20448;-75
2022/06/05 03:50:11;;;;;;;0.00;0.00;;;11.40;99.90;;;;;;5017101;28;20528;-75
2022/06/05 03:52:40;;;;;;;0.00;0.00;;;11.40;99.90;;;;;;5017068;28;20481;-75
2022/06/05 03:55:09;;;;;;;0.00;0.00;;;11.40;99.90;;;;;;5017462;28;20468;-75
2022/06/05 03:57:37;;;;;;;0.00;0.00;;;11.40;99.90;;;;;;5016856;28;20552;-75
2022/06/05 04:00:06;;;;;;;0.00;0.00;;;11.40;99.90;;;;;;5019953;28;20572;-75
2022/06/05 04:02:34;;;;;;;0.00;0.00;;;11.50;99.90;;;;;;5020821;28;20487;-75
2022/06/05 04:05:03;;;;;;;2.43;0.00;;;11.60;99.90;;;;;;5020639;28;20506;-75
2022/06/05 04:07:32;;;;;;;0.00;0.00;;;11.60;99.90;;;;;;5020947;28;20445;-75
2022/06/05 04:09:59;;;;;;;0.00;0.00;;;11.60;99.90;;;;;;5021118;28;20477;-75
2022/06/05 04:12:27;;;;;;;0.00;0.00;;;11.60;99.90;;;;;;5021181;28;20481;-75
2022/06/05 04:14:55;;;;;;;0.00;0.00;;;11.60;99.90;;;;;;5021895;28;20441;-73
2022/06/05 04:17:23;;;;;;;0.00;0.00;;;11.80;99.90;;;;;;5020598;28;20936;-74
2022/06/05 04:19:53;;;;;;;0.00;0.00;;;11.80;99.90;;;;;;5020572;28;20445;-74
2022/06/05 04:22:20;;;;;;;0.00;0.00;;;11.90;99.90;;;;;;5020396;28;20835;-75
2022/06/05 04:24:49;;;;;;;0.00;0.00;;;11.90;99.90;;;;;;5020524;28;20444;-75
2022/06/05 04:27:17;;;;;;;0.00;0.00;;;12.00;99.90;;;;;;5020401;28;20987;-76
2022/06/05 04:29:45;;;;;;;0.00;0.00;;;12.10;99.90;;;;;;5020475;28;20797;-75
2022/06/05 04:32:13;;;;;;;0.00;0.00;;;12.10;99.90;;;;;;5020351;28;20983;-76
2022/06/05 04:34:41;;;;;;;0.00;0.00;;;12.20;99.90;;;;;;5020754;28;20802;-74
2022/06/05 04:37:09;;;;;;;0.00;0.00;;;12.30;99.90;;;;;;5026561;28;20480;-74
2022/06/05 04:39:36;;;;;;;0.00;0.00;;;12.30;99.90;;;;;;5022511;28;20628;-74
2022/06/05 04:42:06;;;;;;;0.00;0.00;;;12.40;99.90;;;;;;5020799;28;20901;-75
2022/06/05 04:44:34;;;;;;;0.00;0.00;;;12.40;99.90;;;;;;5025473;28;20438;-75
2022/06/05 04:47:02;;;;;;;0.00;0.00;;;12.50;99.90;;;;;;5023917;28;20445;-74
2022/06/05 04:49:29;;;;;;;0.00;0.00;;;12.60;99.90;;;;;;5023516;28;20746;-74
2022/06/05 04:51:57;;;;;;;0.00;0.00;;;12.60;99.90;;;;;;5020073;28;20682;-74
2022/06/05 04:54:25;;;;;;;0.00;0.00;;;12.70;99.90;;;;;;5019969;28;20485;-77
2022/06/05 04:56:53;;;;;;;0.00;0.00;;;12.80;99.90;;;;;;5020171;28;20453;-74
2022/06/05 04:59:22;;;;;;;0.00;0.00;;;12.90;99.90;;;;;;5019864;28;20715;-75
2022/06/05 05:01:50;;;;;;;0.00;0.00;;;12.90;99.90;;;;;;5020008;28;20557;-75
2022/06/05 05:04:18;;;;;;;0.00;0.00;;;13.00;99.90;;;;;;5019791;28;20433;-75
2022/06/05 05:06:46;;;;;;;0.00;0.00;;;13.10;99.90;;;;;;5019729;28;20452;-75
2022/06/05 05:09:14;;;;;;;0.00;0.00;;;13.20;99.90;;;;;;5019763;28;20447;-75
2022/06/05 05:11:42;;;;;;;0.00;0.00;;;13.30;99.90;;;;;;5019106;28;20472;-75
2022/06/05 05:14:11;;;;;;;0.00;0.00;;;13.40;99.90;;;;;;5019739;28;20485;-75
2022/06/05 05:16:40;;;;;;;0.00;0.00;;;13.50;99.90;;;;;;5019772;28;20452;-75
2022/06/05 05:19:09;;;;;;;0.00;0.00;;;13.60;99.90;;;;;;5019469;28;20456;-76
2022/06/05 05:21:37;;;;;;;0.00;0.00;;;13.70;99.90;;;;;;5019667;28;20548;-75
2022/06/05 05:24:07;;;;;;;0.00;0.00;;;13.70;99.90;;;;;;5019785;28;20713;-75
2022/06/05 05:26:36;;;;;;;0.00;0.00;;;13.90;99.90;;;;;;5019684;28;20703;-75
2022/06/05 05:29:06;;;;;;;0.00;0.00;;;14.20;99.90;;;;;;5019807;28;20536;-76
2022/06/05 05:31:36;;;;;;;0.00;0.00;;;14.50;99.90;;;;;;5019757;28;21108;-75
2022/06/05 05:34:07;;;;;;;0.00;0.00;;;14.60;99.90;;;;;;5020237;28;20563;-75
2022/06/05 05:36:35;;;;;;;0.00;0.00;;;14.60;99.90;;;;;;5021328;28;20443;-75
2022/06/05 05:42:05;;;;;;;0.00;0.00;;;14.60;99.90;;;;;;5020966;28;20918;-75
2022/06/05 05:44:36;;;;;;;0.00;0.00;;;14.60;99.90;;;;;;5019254;28;20512;-75
2022/06/05 05:47:06;;;;;;;0.00;0.00;;;14.70;99.90;;;;;;5018715;28;20725;-75
2022/06/05 05:49:35;;;;;;;0.00;0.00;;;14.80;99.90;;;;;;5019323;28;20437;-75
2022/06/05 05:52:03;;;;;;;0.00;0.00;;;14.80;99.90;;;;;;5018810;28;20487;-75
2022/06/05 05:54:31;;;;;;;0.00;0.00;;;14.80;99.90;;;;;;5018602;28;20483;-75
2022/06/05 05:56:59;;;;;;;0.00;0.00;;;14.90;99.90;;;;;;5018894;28;20975;-75
2022/06/05 05:59:27;;;;;;;0.00;0.00;;;14.90;99.90;;;;;;5018653;28;20451;-75
2022/06/05 06:01:55;;;;;;;0.00;0.00;;;15.00;99.90;;;;;;5018871;28;20465;-75
2022/06/05 06:04:23;;;;;;;0.00;0.00;;;15.10;99.90;;;;;;5018449;28;20469;-75
2022/06/05 06:06:54;;;;;;;0.00;0.00;;;15.10;99.90;;;;;;5018259;28;20536;-75
2022/06/05 06:09:22;;;;;;;0.00;0.00;;;15.30;99.90;;;;;;5018633;28;20514;-76
2022/06/05 06:11:50;;;;;;;0.00;0.00;;;15.30;99.90;;;;;;5018508;28;20548;-75
2022/06/05 06:14:18;;;;;;;0.00;0.00;;;15.40;99.90;;;;;;5018101;28;20571;-75
2022/06/05 06:16:46;;;;;;;0.00;0.00;;;15.50;99.90;;;;;;5018568;28;20875;-74
2022/06/05 06:19:14;;;;;;;0.00;0.00;;;15.70;99.90;;;;;;5018336;28;20438;-75
2022/06/05 06:21:42;;;;;;;0.00;0.00;;;15.70;99.90;;;;;;5018090;28;20773;-75
2022/06/05 06:24:12;;;;;;;0.00;0.00;;;15.80;99.90;;;;;;5017883;28;20437;-74
2022/06/05 06:26:41;;;;;;;0.00;0.00;;;15.80;99.90;;;;;;5019186;28;20846;-74
2022/06/05 06:29:10;;;;;;;0.00;0.00;;;15.90;99.90;;;;;;5018358;28;20476;-75
2022/06/05 06:31:39;;;;;;;0.00;0.00;;;16.10;99.90;;;;;;5018230;28;20639;-75
2022/06/05 06:34:07;;;;;;;0.00;0.00;;;16.10;99.90;;;;;;5018152;28;20512;-74
2022/06/05 06:36:36;;;;;;;0.00;0.00;;;16.30;99.90;;;;;;5018492;28;20455;-74
2022/06/05 06:39:21;;;;;;;0.00;0.00;;;16.30;99.90;;;;;;5018827;28;20530;-75
2022/06/05 06:41:50;;;;;;;0.00;0.00;;;16.40;99.90;;;;;;5018034;28;20462;-74
2022/06/05 06:44:18;;;;;;;0.00;0.00;;;16.50;99.90;;;;;;5018334;28;20637;-75
2022/06/05 06:46:47;;;;;;;0.00;0.00;;;16.60;99.90;;;;;;5017489;28;20496;-75
2022/06/05 06:49:15;;;;;;;0.00;0.00;;;16.70;99.90;;;;;;5017825;28;20540;-72
2022/06/05 06:51:43;;;;;;;0.00;0.00;;;16.80;99.90;;;;;;5017878;28;21050;-74
2022/06/05 06:54:12;;;;;;;0.00;0.00;;;17.00;99.90;;;;;;5017757;28;20597;-75
2022/06/05 06:56:42;;;;;;;0.00;0.00;;;17.10;99.90;;;;;;5019575;28;20429;-73
2022/06/05 06:59:10;;;;;;;0.00;0.00;;;17.20;99.90;;;;;;5018040;28;20481;-74
2022/06/05 07:01:38;;;;;;;0.00;0.00;;;17.20;99.90;;;;;;5017712;28;20489;-74
2022/06/05 07:04:06;;;;;;;0.00;0.00;;;17.30;99.90;;;;;;5017675;28;21022;-74
2022/06/05 07:06:34;;;;;;;0.00;0.00;;;17.40;99.90;;;;;;5017598;28;21102;-75
2022/06/05 07:09:02;;;;;;;0.00;0.00;;;17.50;99.90;;;;;;5017916;28;20973;-75
2022/06/05 07:11:30;;;;;;;0.00;0.00;;;17.50;99.90;;;;;;5017790;28;20467;-74
2022/06/05 07:13:59;;;;;;;0.00;0.00;;;17.60;99.90;;;;;;5017550;28;21253;-75
2022/06/05 07:16:27;;;;;;;0.00;0.00;;;17.60;99.90;;;;;;5017437;28;20455;-75
2022/06/05 07:18:55;;;;;;;0.00;0.00;;;17.70;99.90;;;;;;5017688;28;20447;-75
2022/06/05 07:21:24;;;;;;;0.00;0.00;;;17.80;99.90;;;;;;5017125;28;21020;-75
2022/06/05 07:23:54;;;;;;;0.00;0.00;;;17.90;99.90;;;;;;5018055;28;20976;-75
2022/06/05 07:26:24;;;;;;;0.00;0.00;;;18.00;99.90;;;;;;5017420;28;20447;-75
2022/06/05 07:28:53;;;;;;;0.00;0.00;;;18.10;99.90;;;;;;5017302;28;20540;-75
2022/06/05 07:31:24;;;;;;;0.00;0.00;;;18.20;99.90;;;;;;5017200;28;20692;-75
2022/06/05 07:33:52;;;;;;;0.00;0.00;;;18.30;99.90;;;;;;5018671;28;21089;-75
2022/06/05 07:36:21;;;;;;;0.00;0.00;;;18.40;99.90;;;;;;5021065;28;20948;-75
2022/06/05 07:38:50;;;;;;;0.00;0.00;;;18.50;99.90;;;;;;5021745;28;20846;-73
2022/06/05 07:41:20;;;;;;;0.00;0.00;;;18.60;99.90;;;;;;5021592;28;20463;-75
2022/06/05 07:43:48;;;;;;;0.00;0.00;;;18.60;99.90;;;;;;5021848;28;20815;-72
2022/06/05 07:46:17;;;;;;;0.00;0.00;;;18.70;99.90;;;;;;5021261;28;20810;-75
2022/06/05 07:48:47;;;;;;;0.00;0.00;;;18.80;99.90;;;;;;5021594;28;20434;-75
2022/06/05 07:56:50;;;;;;;0.00;0.00;;;19.10;99.90;;;;;;5021529;28;20813;-75
2022/06/05 07:59:18;;;;;;;0.00;0.00;;;19.10;99.90;;;;;;5022013;28;20440;-74
2022/06/05 08:01:57;;;;;;;0.00;0.00;;;19.10;99.90;;;;;;5020962;28;20476;-75
2022/06/05 08:04:26;;;;;;;0.00;0.00;;;19.20;99.90;;;;;;5020668;28;20445;-75
2022/06/05 08:06:57;;;;;;;0.00;0.00;;;19.30;99.90;;;;;;5021135;28;21013;-75
2022/06/05 08:09:26;;;;;;;0.00;0.00;;;19.40;99.90;;;;;;5020820;28;20533;-75
2022/06/05 08:11:54;;;;;;;0.00;0.00;;;19.60;99.90;;;;;;5020676;28;20503;-75
2022/06/05 08:14:22;;;;;;;0.00;0.00;;;19.70;99.90;;;;;;5020737;28;20563;-75
2022/06/05 08:16:50;;;;;;;0.00;0.00;;;19.70;99.90;;;;;;5020453;28;20742;-75
2022/06/05 08:19:20;;;;;;;0.00;0.00;;;19.80;99.90;;;;;;5020492;28;20731;-75
2022/06/05 08:21:51;;;;;;;0.00;0.00;;;19.90;99.90;;;;;;5021115;28;20547;-75
2022/06/05 08:24:20;;;;;;;0.00;0.00;;;20.00;99.90;;;;;;5021041;28;20465;-75
2022/06/05 08:26:49;;;;;;;0.00;0.00;;;20.10;99.90;;;;;;5020803;28;20457;-75
2022/06/05 08:29:17;;;;;;;0.00;0.00;;;20.10;99.90;;;;;;5020643;28;20960;-75
2022/06/05 08:31:45;;;;;;;0.00;0.00;;;20.20;99.90;;;;;;5020311;28;20468;-75
2022/06/05 08:34:14;;;;;;;0.00;0.00;;;20.30;99.90;;;;;;5021022;28;20441;-75
2022/06/05 08:36:42;;;;;;;0.00;0.00;;;20.30;99.90;;;;;;5020532;28;20445;-74
2022/06/05 08:42:10;;;;;;;0.00;0.00;;;20.50;99.90;;;;;;5021691;28;20461;-75
2022/06/05 08:44:41;;;;;;;0.00;0.00;;;20.60;99.90;;;;;;5020486;28;20610;-75
2022/06/05 08:47:18;;;;;;;0.00;0.00;;;20.60;99.90;;;;;;5019175;28;20536;-75
2022/06/05 08:49:48;;;;;;;0.00;0.00;;;20.80;99.90;;;;;;5020498;28;20486;-75
2022/06/05 08:52:23;;;;;;;0.00;0.00;;;20.70;99.90;;;;;;5019582;28;20469;-75
2022/06/05 08:54:59;;;;;;;0.00;0.00;;;20.80;99.90;;;;;;5019971;28;20764;-75
2022/06/05 08:57:31;;;;;;;0.00;0.00;;;20.90;99.90;;;;;;5019601;28;20441;-75
2022/06/05 09:00:06;;;;;;;0.00;0.00;;;20.90;99.90;;;;;;5019976;28;20832;-75
2022/06/05 09:02:42;;;;;;;0.00;0.00;;;21.00;99.90;;;;;;5020056;28;20464;-75
2022/06/05 09:05:18;;;;;;;0.00;0.00;;;21.10;99.90;;;;;;5019794;28;20461;-75
2022/06/05 09:07:50;;;;;;;0.00;0.00;;;21.10;99.90;;;;;;5019565;28;20925;-75
2022/06/05 09:10:25;;;;;;;0.00;0.00;;;21.20;99.90;;;;;;5019575;28;20524;-75
2022/06/05 09:12:59;;;;;;;0.00;0.00;;;21.20;99.90;;;;;;5020685;28;20547;-75
2022/06/05 09:15:31;;;;;;;0.00;0.00;;;21.30;99.90;;;;;;5025549;28;20484;-75
2022/06/05 09:18:01;;;;;;;0.00;0.00;;;21.30;99.90;;;;;;5023500;28;20775;-75
2022/06/05 09:20:43;;;;;;;0.00;0.00;;;21.40;99.90;;;;;;5022465;28;20438;-74
2022/06/05 09:23:24;;;;;;;0.00;0.00;;;21.40;99.90;;;;;;5021856;28;20532;-73
2022/06/05 09:26:02;;;;;;;0.00;0.00;;;21.40;99.90;;;;;;5020811;28;20429;-74
2022/06/05 09:28:50;;;;;;;0.00;0.00;;;21.50;99.90;;;;;;5019369;28;20698;-75
2022/06/05 09:31:53;;;;;;;0.00;0.00;;;21.60;99.90;;;;;;5019659;28;20454;-75
2022/06/05 09:34:25;;;;;;;0.00;0.00;;;21.60;99.90;;;;;;5014243;28;20445;-74
2022/06/05 09:36:59;;;;;;;0.00;0.00;;;21.70;99.90;;;;;;5019151;28;20576;-74
2022/06/05 09:39:30;;;;;;;0.00;0.00;;;21.70;99.90;;;;;;5019078;28;20472;-75
2022/06/05 09:42:22;;;;;;;0.00;0.00;;;21.80;99.90;;;;;;5019082;28;20625;-74
2022/06/05 09:45:03;;;;;;;0.00;0.00;;;21.80;99.90;;;;;;5018722;28;20462;-74
2022/06/05 09:47:36;;;;;;;0.00;0.00;;;21.90;99.90;;;;;;5018930;28;20529;-75
2022/06/05 09:50:12;;;;;;;0.00;0.00;;;21.90;99.90;;;;;;5018779;28;20536;-73
2022/06/05 09:52:40;;;;;;;0.00;0.00;;;21.90;99.90;;;;;;5018721;28;20474;-73
2022/06/05 09:55:14;;;;;;;0.00;0.00;;;22.00;99.90;;;;;;5018792;28;20857;-75
2022/06/05 10:00:49;;;;;;;0.00;0.00;;;22.10;99.90;;;;;;5018597;28;20448;-74
2022/06/05 10:03:20;;;;;;;0.00;0.00;;;22.20;99.90;;;;;;5018410;28;20438;-73
2022/06/05 10:06:17;;;;;;;0.00;0.00;;;22.20;99.90;;;;;;5018847;28;20891;-73
2022/06/05 10:08:47;;;;;;;0.00;0.00;;;22.20;99.90;;;;;;5019076;28;20449;-73
2022/06/05 10:11:23;;;;;;;0.00;0.00;;;22.40;99.90;;;;;;5018314;28;20671;-73
2022/06/05 10:14:03;;;;;;;0.00;0.00;;;22.40;99.90;;;;;;5018592;28;20459;-74
2022/06/05 10:16:41;;;;;;;0.00;0.00;;;22.40;99.90;;;;;;5018364;28;20853;-75
2022/06/05 10:19:29;;;;;;;0.00;0.00;;;22.60;99.90;;;;;;5018807;28;20539;-75
2022/06/05 10:22:04;;;;;;;0.00;0.00;;;22.80;99.90;;;;;;5018507;28;20460;-74
2022/06/05 10:24:48;;;;;;;0.00;0.00;;;22.90;99.90;;;;;;5018523;28;20939;-75
2022/06/05 10:27:17;;;;;;;0.00;0.00;;;23.00;99.90;;;;;;5017916;28;20498;-75
2022/06/05 10:29:52;;;;;;;0.00;0.00;;;23.20;99.90;;;;;;5019626;28;20663;-75
2022/06/05 10:32:26;;;;;;;0.00;0.00;;;23.30;99.90;;;;;;5019461;28;20521;-75
2022/06/05 10:35:00;;;;;;;0.00;0.00;;;23.40;99.90;;;;;;5019904;28;20527;-75
2022/06/05 10:37:36;;;;;;;0.00;0.00;;;23.40;99.90;;;;;;5019402;28;21003;-74
2022/06/05 10:40:13;;;;;;;0.00;0.00;;;23.40;99.90;;;;;;5019533;28;20540;-74
2022/06/05 10:42:51;;;;;;;0.00;0.00;;;23.40;99.90;;;;;;5018445;28;20501;-74
2022/06/05 10:45:30;;;;;;;0.00;0.00;;;23.50;99.90;;;;;;5018069;28;20631;-73
2022/06/05 10:48:21;;;;;;;0.00;0.00;;;23.50;99.90;;;;;;5017944;28;20437;-75
2022/06/05 10:50:56;;;;;;;0.00;0.00;;;23.60;99.90;;;;;;5009844;28;20933;-75
2022/06/05 10:53:32;;;;;;;0.00;0.00;;;23.60;99.90;;;;;;5017700;28;20536;-75
2022/06/05 10:56:11;;;;;;;0.00;0.00;;;23.60;99.90;;;;;;5018257;28;20560;-75
2022/06/05 10:58:43;;;;;;;0.00;0.00;;;23.70;99.90;;;;;;5017817;28;20660;-74
2022/06/05 11:01:45;;;;;;;0.00;0.00;;;23.70;99.90;;;;;;5017682;28;20564;-74
2022/06/05 11:04:26;;;;;;;0.00;0.00;;;23.70;99.90;;;;;;5014715;28;20468;-74
2022/06/05 11:07:00;;;;;;;0.00;0.00;;;23.70;99.90;;;;;;5017326;28;20439;-74
2022/06/05 11:09:41;;;;;;;0.00;0.00;;;23.80;99.90;;;;;;5017262;28;20438;-74
2022/06/05 11:15:13;;;;;;;0.00;0.00;;;23.80;99.90;;;;;;5017923;28;20448;-74
2022/06/05 11:17:54;;;;;;;0.00;0.00;;;23.90;99.90;;;;;;5017173;28;20564;-74
2022/06/05 11:20:26;;;;;;;0.00;0.00;;;24.00;99.90;;;;;;5017288;28;20735;-74
2022/06/05 11:22:57;;;;;;;0.00;0.00;;;24.10;99.90;;;;;;5017253;28;21087;-74
2022/06/05 11:25:31;;;;;;;0.00;0.00;;;24.10;99.90;;;;;;5017494;28;20611;-73
2022/06/05 11:28:14;;;;;;;0.00;0.00;;;24.20;99.90;;;;;;5017482;28;20493;-74
2022/06/05 11:30:48;;;;;;;0.00;0.00;;;24.30;99.90;;;;;;5017230;28;20442;-74
2022/06/05 11:33:21;;;;;;;0.00;0.00;;;24.40;99.90;;;;;;5019078;28;20445;-74
2022/06/05 11:36:02;;;;;;;0.00;0.00;;;24.40;99.90;;;;;;5018733;28;20885;-75
2022/06/05 11:38:40;;;;;;;0.00;0.00;;;24.30;99.90;;;;;;5017477;28;20704;-73
2022/06/05 11:41:22;;;;;;;0.00;0.00;;;24.40;99.90;;;;;;5016902;28;20774;-73
2022/06/05 11:44:04;;;;;;;0.00;0.00;;;24.50;99.90;;;;;;5017462;28;20478;-73
2022/06/05 11:46:43;;;;;;;0.00;0.00;;;24.50;99.90;;;;;;5016704;28;20447;-75
2022/06/05 11:49:17;;;;;;;0.00;0.00;;;24.60;99.90;;;;;;5017462;28;20832;-75
2022/06/05 11:52:00;;;;;;;0.00;0.00;;;24.50;99.70;;;;;;5022452;28;20477;-75
2022/06/05 11:54:36;;;;;;;0.00;0.00;;;24.50;99.70;;;;;;5017076;28;20571;-75
2022/06/05 11:57:13;;;;;;;0.00;0.00;;;24.50;99.50;;;;;;5017005;28;20479;-75
2022/06/05 11:59:48;;;;;;;0.00;0.00;;;24.50;99.90;;;;;;5016429;28;20450;-75
2022/06/05 12:02:39;;;;;;;0.00;0.00;;;24.40;99.90;;;;;;5016896;28;20491;-73
2022/06/05 12:05:14;;;;;;;0.00;0.00;;;24.40;99.90;;;;;;5016988;28;20478;-75
2022/06/05 12:07:48;;;;;;;0.00;0.00;;;24.50;99.60;;;;;;5017724;28;20800;-74
2022/06/05 12:10:23;;;;;;;0.00;0.00;;;24.60;99.30;;;;;;5017271;28;20447;-73
2022/06/05 12:13:11;;;;;;;0.00;0.00;;;24.70;98.90;;;;;;4255337;28;10000501;-74
2022/06/05 12:15:56;;;;;;;0.00;0.00;;;24.70;99.30;;;;;;5016717;28;20206;-74
2022/06/05 12:18:31;;;;;;;0.00;0.00;;;24.90;99.50;;;;;;5016783;28;20514;-75
2022/06/05 12:21:10;;;;;;;0.00;0.00;;;25.10;98.40;;;;;;5018188;28;20463;-74
2022/06/05 12:23:47;;;;;;;0.00;0.00;;;25.20;98.70;;;;;;5020990;28;20452;-74
2022/06/05 12:26:23;;;;;;;0.00;0.00;;;25.30;97.20;;;;;;5020440;28;20702;-74
2022/06/05 12:28:59;;;;;;;0.00;0.00;;;25.30;97.60;;;;;;5020553;28;20604;-74
2022/06/05 12:31:30;;;;;;;0.00;0.00;;;25.30;97.40;;;;;;5019990;28;20456;-75
2022/06/05 12:34:03;;;;;;;0.00;0.00;;;25.40;97.50;;;;;;5020346;28;20942;-74
2022/06/05 12:36:35;;;;;;;0.00;0.00;;;25.50;96.10;;;;;;5020168;28;20507;-74
2022/06/05 12:39:07;;;;;;;0.00;0.00;;;25.50;96.70;;;;;;5020221;28;20671;-74
2022/06/05 12:41:48;;;;;;;0.00;0.00;;;25.50;97.20;;;;;;5020310;28;20487;-73
2022/06/05 12:44:24;;;;;;;0.00;0.00;;;25.50;96.50;;;;;;5020431;28;20448;-73
2022/06/05 12:47:00;;;;;;;0.00;0.00;;;25.60;96.10;;;;;;5019201;28;20984;-73
2022/06/05 12:49:40;;;;;;;0.00;0.00;;;25.80;96.20;;;;;;5020131;28;20604;-75
2022/06/05 12:52:20;;;;;;;0.00;0.00;;;25.90;95.60;;;;;;5019597;28;20549;-75
2022/06/05 12:54:53;;;;;;;0.00;0.00;;;26.00;95.30;;;;;;5019625;28;20530;-74
2022/06/05 12:57:39;;;;;;;0.00;0.00;;;26.00;95.70;;;;;;5019244;28;20474;-74
2022/06/05 13:00:15;;;;;;;0.00;0.00;;;26.00;95.40;;;;;;5019629;28;20536;-74
2022/06/05 13:02:49;;;;;;;0.00;0.00;;;26.10;95.20;;;;;;5019616;28;20573;-74
2022/06/05 13:05:26;;;;;;;0.00;0.00;;;26.10;95.50;;;;;;5019522;28;20433;-75
2022/06/05 13:08:00;;;;;;;0.00;0.00;;;26.10;95.40;;;;;;5020515;28;20435;-75
2022/06/05 13:10:36;;;;;;;0.00;0.00;;;26.20;95.00;;;;;;5020454;28;20520;-74
2022/06/05 13:13:14;;;;;;;0.00;0.00;;;26.20;94.90;;;;;;5021334;28;20541;-75
2022/06/05 13:15:47;;;;;;;0.00;0.00;;;26.20;94.70;;;;;;5019945;28;20684;-75
2022/06/05 13:18:24;;;;;;;0.00;0.00;;;26.20;94.50;;;;;;5019476;28;20493;-74
2022/06/05 13:21:08;;;;;;;0.00;0.00;;;26.10;94.40;;;;;;5019266;28;20446;-74
2022/06/05 13:23:41;;;;;;;0.00;0.00;;;26.10;94.60;;;;;;5019158;28;20468;-73
2022/06/05 13:26:18;;;;;;;0.00;0.00;;;26.30;94.30;;;;;;5019385;28;20470;-72
2022/06/05 13:28:52;;;;;;;0.00;0.00;;;26.30;93.90;;;;;;5019287;28;20530;-72
2022/06/05 13:31:32;;;;;;;0.00;0.00;;;26.30;94.00;;;;;;5018358;28;20462;-73
2022/06/05 13:34:25;;;;;;;0.00;0.00;;;26.40;93.10;;;;;;5018786;28;20445;-72
2022/06/05 13:37:08;;;;;;;0.00;0.00;;;26.40;93.50;;;;;;5013204;28;20791;-71